Time;durP1;ratioP1;P1;durP2;ratioP2;P2;SDS_P1;SDS_P2;PMS_P1;PMS_P2;Temp;Humidity;BMP_temperature;BMP_pressure;BME280_temperature;BME280_humidity;BME280_pressure;Samples;Min_cycle;Max_cycle;Signal;HPM_P1;HPM_P2
2022/11/20 00:01:12;;;;;;;21.00;10.88;;;;;;;1.48;85.17;97643.72;4970259;28;20039;-80
2022/11/20 00:03:38;;;;;;;19.17;10.07;;;;;;;1.34;86.40;97622.66;4969296;28;20039;-81
2022/11/20 00:06:06;;;;;;;21.52;11.20;;;;;;;1.18;85.87;97625.13;4970448;28;20481;-81
2022/11/20 00:08:33;;;;;;;21.40;11.20;;;;;;;1.32;87.61;97637.50;4970955;28;20049;-81
2022/11/20 00:11:13;;;;;;;20.58;11.25;;;;;;;1.49;87.68;97632.41;4970099;28;20030;-81
2022/11/20 00:13:39;;;;;;;19.77;10.25;;;;;;;1.48;85.96;97630.78;4969275;28;20065;-81
2022/11/20 00:16:07;;;;;;;21.48;11.18;;;;;;;1.53;85.78;97638.91;4969899;28;20086;-81
2022/11/20 00:18:33;;;;;;;19.80;10.40;;;;;;;1.56;85.92;97638.56;4970453;28;20038;-81
2022/11/20 00:21:24;;;;;;;20.50;10.35;;;;;;;1.57;86.21;97629.88;4984933;28;20077;-81
2022/11/20 00:23:51;;;;;;;21.60;11.02;;;;;;;1.66;86.84;97628.94;4970397;28;20117;-81
2022/11/20 00:26:20;;;;;;;24.10;11.07;;;;;;;1.54;85.53;97625.00;4968809;28;20534;-80
2022/11/20 00:28:52;;;;;;;20.33;10.68;;;;;;;1.70;86.62;97635.44;4969712;28;20043;-80
2022/11/20 00:31:18;;;;;;;22.60;10.40;;;;;;;1.83;87.13;97627.25;4984827;28;20059;-81
2022/11/20 00:33:45;;;;;;;20.73;10.57;;;;;;;1.96;86.92;97619.03;4967027;28;20033;-80
2022/11/20 00:36:16;;;;;;;24.13;10.43;;;;;;;2.05;86.83;97625.88;4969979;28;20070;-80
2022/11/20 00:38:42;;;;;;;18.20;10.70;;;;;;;2.09;85.44;97621.97;4969884;28;21013;-80
2022/11/20 00:41:11;;;;;;;20.80;11.10;;;;;;;2.07;84.89;97636.88;4969487;28;20386;-80
2022/11/20 00:43:37;;;;;;;22.48;11.43;;;;;;;2.03;84.14;97638.13;4965376;28;20073;-81
2022/11/20 00:46:12;;;;;;;20.33;10.70;;;;;;;2.00;84.96;97630.69;4969696;28;20098;-81
2022/11/20 00:48:38;;;;;;;20.75;11.13;;;;;;;2.05;85.42;97638.81;4983301;28;20097;-80
2022/11/20 00:51:04;;;;;;;21.60;11.02;;;;;;;2.07;85.65;97640.25;4969842;28;20035;-80
2022/11/20 00:53:29;;;;;;;21.33;10.93;;;;;;;2.09;85.40;97640.09;4969936;28;20070;-80
2022/11/20 00:56:09;;;;;;;19.15;10.27;;;;;;;2.03;84.91;97651.06;4968883;28;20039;-80
2022/11/20 00:58:38;;;;;;;20.77;10.98;;;;;;;2.08;85.43;97644.47;4969659;28;20038;-80
2022/11/20 01:01:16;;;;;;;21.60;10.73;;;;;;;2.06;84.92;97638.66;4969285;28;20093;-80
2022/11/20 01:03:47;;;;;;;21.05;10.77;;;;;;;2.13;86.29;97644.00;4968483;28;20035;-80
2022/11/20 01:06:20;;;;;;;20.80;10.63;;;;;;;2.22;85.73;97645.66;4969781;28;20035;-80
2022/11/20 01:08:47;;;;;;;22.35;10.13;;;;;;;2.24;85.00;97646.28;4968898;28;20557;-80
2022/11/20 01:11:22;;;;;;;19.15;10.30;;;;;;;2.05;83.16;97641.41;4968146;28;20121;-81
2022/11/20 01:13:51;;;;;;;22.25;10.18;;;;;;;1.98;84.89;97642.97;4968356;28;20390;-80
2022/11/20 01:16:21;;;;;;;21.17;10.23;;;;;;;2.06;85.39;97643.00;4968465;28;20383;-80
2022/11/20 01:18:49;;;;;;;20.48;10.27;;;;;;;1.91;84.26;97644.56;4969085;28;20093;-80
2022/11/20 01:21:25;;;;;;;23.17;11.50;;;;;;;1.77;85.31;97651.94;4969092;28;20046;-80
2022/11/20 01:23:52;;;;;;;22.90;11.68;;;;;;;1.64;86.15;97648.97;4969105;28;20034;-80
2022/11/20 01:26:28;;;;;;;24.15;12.18;;;;;;;1.74;86.83;97647.09;4967087;28;20513;-80
2022/11/20 01:28:55;;;;;;;21.63;10.93;;;;;;;1.85;86.12;97639.03;4969062;28;20037;-80
2022/11/20 01:31:29;;;;;;;20.45;11.20;;;;;;;1.96;86.34;97643.13;4969369;28;20442;-80
2022/11/20 01:33:59;;;;;;;22.02;10.82;;;;;;;1.87;85.26;97642.28;4965564;28;20038;-81
2022/11/20 01:36:29;;;;;;;18.40;9.48;;;;;;;1.72;85.24;97637.84;4969283;28;20050;-80
2022/11/20 01:38:59;;;;;;;22.00;11.27;;;;;;;1.53;86.13;97646.66;4968764;28;20035;-81
2022/11/20 01:44:16;;;;;;;21.25;10.98;;;;;;;1.40;88.00;97636.72;4968652;28;20505;-80
2022/11/20 01:47:00;;;;;;;21.23;11.75;;;;;;;1.52;87.62;97642.44;4968672;28;20520;-80
2022/11/20 01:49:41;;;;;;;20.58;10.45;;;;;;;1.59;87.23;97640.88;4969011;28;20035;-81
2022/11/20 01:52:14;;;;;;;21.95;11.38;;;;;;;1.52;86.69;97640.69;4968610;28;20045;-80
2022/11/20 01:54:54;;;;;;;22.15;10.73;;;;;;;1.55;87.78;97640.34;4968494;28;20038;-80
2022/11/20 01:57:22;;;;;;;21.38;11.10;;;;;;;1.61;86.99;97636.34;4968417;28;20061;-80
2022/11/20 01:59:59;;;;;;;27.40;11.55;;;;;;;1.72;87.39;97637.84;4968136;28;20050;-80
2022/11/20 02:02:26;;;;;;;20.45;11.15;;;;;;;1.80;86.91;97636.13;4968552;28;20666;-80
2022/11/20 02:05:00;;;;;;;20.45;10.30;;;;;;;1.82;86.15;97638.56;4968964;28;20504;-80
2022/11/20 02:07:27;;;;;;;23.77;12.02;;;;;;;1.87;86.12;97639.72;4967408;28;20073;-80
2022/11/20 02:09:52;;;;;;;20.70;11.55;;;;;;;1.91;86.36;97637.59;4968967;28;20045;-80
2022/11/20 02:15:03;;;;;;;22.92;11.63;;;;;;;1.84;86.21;97627.06;4968563;28;20076;-80
2022/11/20 02:17:29;;;;;;;21.77;11.18;;;;;;;1.61;85.85;97626.00;4967290;28;20042;-80
2022/11/20 02:19:55;;;;;;;21.40;11.85;;;;;;;1.77;87.48;97641.59;4968989;28;20117;-81
2022/11/20 02:22:35;;;;;;;22.10;10.80;;;;;;;1.72;86.63;97630.91;4972758;28;20039;-80
2022/11/20 02:25:05;;;;;;;29.02;12.82;;;;;;;1.84;87.12;97626.28;4987111;28;20062;-80
2022/11/20 02:27:34;;;;;;;23.30;12.25;;;;;;;1.95;87.32;97617.44;4972013;28;20037;-80
2022/11/20 02:30:10;;;;;;;21.45;11.32;;;;;;;2.05;86.47;97618.91;4972120;28;20553;-80
2022/11/20 02:32:37;;;;;;;24.30;11.77;;;;;;;2.14;86.28;97622.31;4969625;28;20580;-80
2022/11/20 02:35:17;;;;;;;23.10;11.30;;;;;;;2.20;86.44;97621.69;4972372;28;20034;-80
2022/11/20 02:37:47;;;;;;;20.00;11.20;;;;;;;2.18;84.88;97623.63;4972242;28;20059;-81
2022/11/20 02:40:13;;;;;;;21.17;11.30;;;;;;;2.07;84.12;97623.94;4971629;28;20344;-80
2022/11/20 02:42:39;;;;;;;22.80;11.80;;;;;;;2.00;85.42;97610.00;4971818;28;20038;-80
2022/11/20 02:45:06;;;;;;;19.00;10.52;;;;;;;2.05;86.67;97623.28;4971944;28;20070;-80
2022/11/20 02:47:32;;;;;;;20.95;11.07;;;;;;;2.07;86.59;97627.31;4972070;28;20436;-80
2022/11/20 02:49:57;;;;;;;22.20;11.95;;;;;;;2.13;86.30;97631.06;4971278;28;20113;-80
2022/11/20 02:52:24;;;;;;;20.73;10.88;;;;;;;1.91;84.81;97629.03;4971858;28;20042;-80
2022/11/20 02:54:49;;;;;;;22.00;11.20;;;;;;;1.78;85.27;97627.69;4970639;28;20034;-80
2022/11/20 02:57:15;;;;;;;22.83;12.65;;;;;;;1.63;86.33;97629.25;4972227;28;20473;-80
2022/11/20 02:59:40;;;;;;;20.48;10.65;;;;;;;1.79;87.97;97618.16;4972155;28;20030;-80
2022/11/20 03:02:06;;;;;;;20.90;11.35;;;;;;;1.79;86.80;97618.16;4971439;28;20111;-81
2022/11/20 03:04:31;;;;;;;23.13;11.30;;;;;;;1.90;87.78;97619.66;4971456;28;20038;-80
2022/11/20 03:06:57;;;;;;;22.38;10.60;;;;;;;1.79;85.48;97618.97;4986971;28;20440;-80
2022/11/20 03:09:22;;;;;;;22.48;12.05;;;;;;;1.72;87.15;97612.81;4971569;28;20041;-80
2022/11/20 03:11:48;;;;;;;20.73;11.27;;;;;;;1.84;88.33;97601.22;4972940;28;20037;-80
2022/11/20 03:14:14;;;;;;;21.98;10.43;;;;;;;1.96;87.84;97608.69;4971457;28;20043;-80
2022/11/20 03:16:40;;;;;;;19.83;10.55;;;;;;;2.02;86.98;97602.88;4972143;28;20595;-80
2022/11/20 03:19:05;;;;;;;21.80;10.82;;;;;;;2.06;85.67;97609.38;4971864;28;20042;-80
2022/11/20 03:21:33;;;;;;;26.20;12.10;;;;;;;2.11;85.93;97607.13;4971491;28;20051;-81
2022/11/20 03:23:59;;;;;;;21.65;10.90;;;;;;;2.14;87.30;97601.63;4970517;28;20159;-81
2022/11/20 03:26:27;;;;;;;21.25;10.98;;;;;;;2.14;87.43;97599.84;4971602;28;20925;-80
2022/11/20 03:28:57;;;;;;;18.73;10.55;;;;;;;2.19;86.53;97591.63;4972142;28;20037;-81
2022/11/20 03:31:30;;;;;;;25.00;11.47;;;;;;;2.25;86.64;97603.13;4970600;28;20602;-81
2022/11/20 03:33:57;;;;;;;23.20;11.23;;;;;;;2.28;86.23;97600.19;4966263;28;20385;-80
2022/11/20 03:36:23;;;;;;;21.90;11.20;;;;;;;2.36;86.08;97598.44;4971393;28;20039;-80
2022/11/20 03:38:49;;;;;;;20.58;10.90;;;;;;;2.38;85.68;97601.66;4971011;28;20114;-80
2022/11/20 03:41:24;;;;;;;21.95;11.38;;;;;;;2.42;85.15;97600.38;4970892;28;20043;-81
2022/11/20 03:44:05;;;;;;;22.13;10.98;;;;;;;2.45;85.36;97598.44;4971781;28;20388;-80
2022/11/20 03:46:31;;;;;;;20.08;9.93;;;;;;;2.50;85.22;97606.53;4970236;28;20034;-81
2022/11/20 03:48:57;;;;;;;22.77;11.38;;;;;;;2.49;84.82;97602.34;4971615;28;20114;-81
2022/11/20 03:51:29;;;;;;;20.13;11.55;;;;;;;2.51;85.39;97588.25;4973276;28;20118;-81
2022/11/20 03:53:58;;;;;;;21.17;10.40;;;;;;;2.46;84.70;97584.53;4972255;28;20092;-81
2022/11/20 03:56:31;;;;;;;23.80;11.75;;;;;;;2.44;85.31;97591.66;4971504;28;20042;-81
2022/11/20 03:58:57;;;;;;;22.90;12.27;;;;;;;2.41;85.36;97585.03;4985462;28;20041;-81
2022/11/20 04:01:30;;;;;;;22.77;11.50;;;;;;;2.44;85.04;97578.72;4970659;28;20089;-81
2022/11/20 04:03:57;;;;;;;25.40;11.85;;;;;;;2.41;85.06;97578.06;4971670;28;20125;-81
2022/11/20 04:06:36;;;;;;;21.88;11.35;;;;;;;2.39;85.16;97584.38;4971681;28;20034;-81
2022/11/20 04:09:02;;;;;;;24.48;11.82;;;;;;;2.42;85.90;97587.44;4971739;28;20077;-81
2022/11/20 04:11:31;;;;;;;24.77;11.50;;;;;;;2.46;85.06;97581.94;4972478;28;20470;-81
2022/11/20 04:14:00;;;;;;;22.20;11.10;;;;;;;2.46;84.92;97580.19;4987496;28;20577;-80
2022/11/20 04:16:31;;;;;;;20.88;10.98;;;;;;;2.47;85.08;97576.63;4972422;28;20035;-81
2022/11/20 04:18:59;;;;;;;23.15;11.05;;;;;;;2.45;84.38;97580.31;4971326;28;20038;-80
2022/11/20 04:21:26;;;;;;;22.90;12.18;;;;;;;2.47;85.31;97581.00;4971442;28;20035;-81
2022/11/20 04:23:53;;;;;;;25.33;11.82;;;;;;;2.45;84.05;97582.91;4971128;28;20050;-80
2022/11/20 04:26:20;;;;;;;24.15;11.70;;;;;;;2.47;84.49;97581.78;4969418;28;20090;-81
2022/11/20 04:28:46;;;;;;;25.98;12.07;;;;;;;2.46;84.64;97575.00;4971202;28;20127;-80
2022/11/20 04:31:16;;;;;;;20.92;11.13;;;;;;;2.51;85.48;97577.09;4970223;28;20047;-80
2022/11/20 04:33:42;;;;;;;25.88;12.02;;;;;;;2.45;84.48;97577.72;4968020;28;20053;-80
2022/11/20 04:36:17;;;;;;;22.80;11.10;;;;;;;2.47;85.60;97578.41;4970374;28;20154;-80
2022/11/20 04:38:44;;;;;;;23.58;12.05;;;;;;;2.38;85.02;97577.56;4970544;28;20050;-80
2022/11/20 04:41:18;;;;;;;23.15;12.05;;;;;;;2.37;85.33;97581.94;4970465;28;20454;-80
2022/11/20 04:43:49;;;;;;;21.95;11.20;;;;;;;2.33;85.08;97575.47;4970243;28;20042;-80
2022/11/20 04:46:15;;;;;;;;;;;;;;;2.42;85.75;97574.50;4967688;28;20483;-80
2022/11/20 04:48:41;;;;;;;21.90;10.82;;;;;;;2.45;85.28;97575.16;4969427;28;19960;-80
2022/11/20 04:51:06;;;;;;;25.98;11.57;;;;;;;2.48;85.03;97572.25;4970163;28;20509;-80
2022/11/20 04:53:32;;;;;;;23.17;12.25;;;;;;;2.54;85.70;97566.44;4969910;28;20047;-80
2022/11/20 04:56:07;;;;;;;24.48;11.80;;;;;;;2.38;84.07;97570.63;4969777;28;20427;-80
2022/11/20 04:58:34;;;;;;;22.98;11.70;;;;;;;2.40;85.25;97570.47;4970461;28;20043;-80
2022/11/20 05:01:05;;;;;;;23.40;11.02;;;;;;;2.46;85.80;97571.59;4968558;28;20092;-80
2022/11/20 05:03:31;;;;;;;;;;;;;;;2.47;85.30;97571.44;4969727;28;20130;-80
2022/11/20 05:05:56;;;;;;;22.60;11.40;;;;;;;2.44;85.21;97576.13;4969616;28;20008;-80
2022/11/20 05:08:22;;;;;;;20.95;11.15;;;;;;;2.37;85.44;97568.19;4970481;28;20038;-80
2022/11/20 05:10:47;;;;;;;23.38;11.23;;;;;;;2.38;85.85;97562.03;4969792;28;20067;-80
2022/11/20 05:13:13;;;;;;;24.83;11.60;;;;;;;2.31;85.91;97572.22;4969757;28;20045;-79
2022/11/20 05:15:38;;;;;;;23.83;12.48;;;;;;;2.27;85.26;97568.34;4968478;28;20118;-80
2022/11/20 05:18:04;;;;;;;25.48;12.57;;;;;;;2.31;85.82;97574.81;4969881;28;20058;-80
2022/11/20 05:20:29;;;;;;;28.75;12.07;;;;;;;2.37;85.74;97575.97;4969812;28;20467;-80
2022/11/20 05:22:58;;;;;;;26.17;11.90;;;;;;;2.41;85.98;97578.06;4969837;28;20066;-80
2022/11/20 05:25:23;;;;;;;24.42;11.52;;;;;;;2.46;85.92;97569.84;4970010;28;20158;-80
2022/11/20 05:27:49;;;;;;;24.30;12.27;;;;;;;2.53;85.34;97570.81;4976375;28;20396;-80
2022/11/20 05:30:15;;;;;;;22.17;12.18;;;;;;;2.56;85.10;97570.47;4969071;28;20046;-80
2022/11/20 05:32:40;;;;;;;23.92;12.00;;;;;;;2.53;84.52;97555.28;4966639;28;20034;-80
2022/11/20 05:35:06;;;;;;;26.58;11.52;;;;;;;2.54;85.18;97559.47;4968951;28;20031;-80
2022/11/20 05:37:32;;;;;;;26.27;11.75;;;;;;;2.46;85.07;97566.41;4969624;28;20045;-80
2022/11/20 05:39:57;;;;;;;24.63;11.95;;;;;;;2.39;85.27;97554.09;4968740;28;20070;-80
2022/11/20 05:42:32;;;;;;;23.75;10.63;;;;;;;2.44;86.37;97550.25;4969522;28;20047;-80
2022/11/20 05:44:59;;;;;;;25.33;12.88;;;;;;;2.48;86.16;97554.13;4968330;28;20410;-80
2022/11/20 05:47:27;;;;;;;21.27;10.90;;;;;;;2.52;85.39;97550.22;4969654;28;20042;-80
2022/11/20 05:49:52;;;;;;;22.80;11.15;;;;;;;2.54;85.46;97540.53;4969093;28;20070;-80
2022/11/20 05:52:18;;;;;;;23.75;11.88;;;;;;;2.56;85.64;97539.41;4968855;28;20486;-80
2022/11/20 05:54:43;;;;;;;24.02;11.73;;;;;;;2.60;85.65;97550.25;4969115;28;20045;-80
2022/11/20 05:57:09;;;;;;;24.00;10.93;;;;;;;2.63;85.76;97549.91;4972543;28;20040;-80
2022/11/20 05:59:34;;;;;;;24.88;11.43;;;;;;;2.60;85.58;97547.66;4972596;28;20037;-80
2022/11/20 06:02:00;;;;;;;22.35;10.30;;;;;;;2.64;85.86;97544.59;4972385;28;20038;-80
2022/11/20 06:04:25;;;;;;;25.05;12.27;;;;;;;2.60;85.51;97537.31;4971702;28;20125;-80
2022/11/20 06:06:51;;;;;;;26.02;12.43;;;;;;;2.55;86.06;97542.97;4972840;28;20030;-80
2022/11/20 06:09:16;;;;;;;23.02;11.50;;;;;;;2.58;86.59;97541.81;4972429;28;20575;-80
2022/11/20 06:11:42;;;;;;;25.02;12.18;;;;;;;2.62;86.47;97553.47;4972849;28;20463;-80
2022/11/20 06:14:07;;;;;;;24.15;12.25;;;;;;;2.66;86.11;97550.41;4972330;28;20043;-80
2022/11/20 06:16:33;;;;;;;23.98;11.35;;;;;;;2.63;86.14;97544.72;4972339;28;20034;-80
2022/11/20 06:18:58;;;;;;;23.30;11.80;;;;;;;2.67;86.02;97544.25;4972206;28;20088;-80
2022/11/20 06:21:24;;;;;;;27.92;12.60;;;;;;;2.63;85.30;97553.31;4972727;28;20039;-80
2022/11/20 06:23:52;;;;;;;25.70;11.38;;;;;;;2.67;85.50;97551.22;4971673;28;20062;-79
2022/11/20 06:26:27;;;;;;;23.27;11.70;;;;;;;2.69;85.78;97549.25;4972266;28;20035;-78
2022/11/20 06:28:55;;;;;;;23.20;11.65;;;;;;;2.69;85.70;97550.06;4972370;28;20118;-80
2022/11/20 06:31:24;;;;;;;27.13;13.02;;;;;;;2.69;86.23;97546.66;4971896;28;20617;-80
2022/11/20 06:33:51;;;;;;;27.08;11.73;;;;;;;2.69;85.42;97551.84;4983643;28;20376;-80
2022/11/20 06:36:20;;;;;;;22.15;11.00;;;;;;;2.67;85.50;97552.00;4972342;28;20118;-80
2022/11/20 06:38:46;;;;;;;25.60;12.25;;;;;;;2.71;85.98;97552.50;4971356;28;20042;-80
2022/11/20 06:41:18;;;;;;;24.77;11.85;;;;;;;2.73;85.79;97545.38;4970987;28;20045;-80
2022/11/20 06:43:44;;;;;;;24.48;12.07;;;;;;;2.73;85.54;97555.75;4971311;28;20061;-80
2022/11/20 06:46:12;;;;;;;24.30;11.98;;;;;;;2.76;85.60;97550.25;4971964;28;20026;-80
2022/11/20 06:48:38;;;;;;;26.35;11.77;;;;;;;2.78;85.81;97556.06;4972093;28;20054;-80
2022/11/20 06:51:06;;;;;;;23.80;11.27;;;;;;;2.80;85.66;97561.06;4971575;28;20031;-80
2022/11/20 06:53:31;;;;;;;22.88;11.68;;;;;;;2.79;85.65;97555.09;4970804;28;20035;-80
2022/11/20 06:55:57;;;;;;;26.05;12.65;;;;;;;2.70;85.21;97556.09;4971206;28;20035;-80
2022/11/20 06:58:26;;;;;;;26.38;11.70;;;;;;;2.60;86.63;97560.59;4972089;28;20170;-80
2022/11/20 07:00:52;;;;;;;25.42;11.70;;;;;;;2.54;86.28;97556.06;4970767;28;20026;-80
2022/11/20 07:03:17;;;;;;;23.73;11.60;;;;;;;2.56;86.73;97564.47;4971290;28;20038;-80
2022/11/20 07:05:43;;;;;;;22.55;11.57;;;;;;;2.55;87.24;97566.25;4971317;28;20077;-80
2022/11/20 07:08:09;;;;;;;23.73;10.85;;;;;;;2.62;87.27;97566.41;4971207;28;20122;-80
2022/11/20 07:10:35;;;;;;;22.60;11.48;;;;;;;2.69;86.79;97564.78;4971265;28;20039;-80
2022/11/20 07:13:00;;;;;;;27.10;12.13;;;;;;;2.70;86.46;97563.84;4971528;28;20085;-81
2022/11/20 07:15:26;;;;;;;26.05;11.82;;;;;;;2.72;86.29;97569.66;4972106;28;20031;-81
2022/11/20 07:17:52;;;;;;;24.83;10.88;;;;;;;2.72;85.69;97561.91;4972522;28;20569;-80
2022/11/20 07:20:18;;;;;;;25.05;12.40;;;;;;;2.76;86.23;97560.59;4970880;28;20031;-81
2022/11/20 07:22:43;;;;;;;23.77;11.35;;;;;;;2.71;85.12;97569.84;4971154;28;20046;-80
2022/11/20 07:25:09;;;;;;;22.08;11.98;;;;;;;2.68;85.85;97573.53;4978725;28;20427;-80
2022/11/20 07:27:36;;;;;;;23.98;11.32;;;;;;;2.63;86.17;97573.22;4960170;28;20039;-81
2022/11/20 07:30:03;;;;;;;25.08;11.98;;;;;;;2.71;86.35;97568.06;4969799;28;20042;-81
2022/11/20 07:32:29;;;;;;;23.88;10.95;;;;;;;2.77;86.57;97557.03;4966187;28;20081;-82
2022/11/20 07:34:54;;;;;;;24.33;12.27;;;;;;;2.80;86.36;97569.66;4970514;28;20027;-81
2022/11/20 07:37:20;;;;;;;24.70;11.43;;;;;;;2.88;86.31;97579.22;4970767;28;20067;-81
2022/11/20 07:39:46;;;;;;;22.73;11.02;;;;;;;2.93;86.02;97577.72;4969444;28;20038;-81
2022/11/20 07:42:12;;;;;;;23.25;11.05;;;;;;;2.94;85.60;97578.56;4970397;28;20046;-81
2022/11/20 07:44:38;;;;;;;23.15;10.65;;;;;;;2.90;85.64;97580.66;4968289;28;20042;-81
2022/11/20 07:47:03;;;;;;;23.40;11.35;;;;;;;2.90;85.29;97578.06;4970678;28;20027;-82
2022/11/20 07:49:29;;;;;;;22.15;10.68;;;;;;;2.89;85.42;97584.22;4970019;28;20534;-82
2022/11/20 07:51:55;;;;;;;23.35;11.07;;;;;;;2.91;86.45;97587.44;4970626;28;20759;-81
2022/11/20 07:54:21;;;;;;;19.23;11.10;;;;;;;2.98;86.18;97577.25;4969910;28;20034;-80
2022/11/20 07:56:48;;;;;;;24.83;12.45;;;;;;;3.04;85.81;97574.00;4969481;28;20788;-81
2022/11/20 07:59:15;;;;;;;26.65;12.07;;;;;;;3.09;86.02;97583.88;4970504;28;20035;-81
2022/11/20 08:01:41;;;;;;;25.90;12.40;;;;;;;3.06;85.03;97571.22;4983946;28;20045;-81
2022/11/20 08:04:07;;;;;;;22.13;11.80;;;;;;;3.05;85.69;97564.44;4969493;28;20061;-81
2022/11/20 08:06:32;;;;;;;24.88;12.10;;;;;;;3.02;85.09;97569.97;4969712;28;20035;-81
2022/11/20 08:08:58;;;;;;;22.27;10.45;;;;;;;3.01;85.14;97569.16;4970123;28;20064;-81
2022/11/20 08:14:14;;;;;;;22.55;10.75;;;;;;;2.97;86.02;97577.41;4970416;28;20041;-81
2022/11/20 08:16:46;;;;;;;21.10;10.30;;;;;;;3.03;86.13;97574.97;4969632;28;20085;-81
2022/11/20 08:19:17;;;;;;;20.15;10.18;;;;;;;3.10;85.81;97575.91;4968697;28;20122;-81
2022/11/20 08:21:44;;;;;;;;;;;;;;;3.16;86.08;97569.28;4969208;28;20031;-80
2022/11/20 08:24:11;;;;;;;21.42;10.52;;;;;;;3.21;85.84;97567.00;4970047;28;20305;-81
2022/11/20 08:26:38;;;;;;;20.90;10.45;;;;;;;3.28;85.85;97575.72;4969989;28;20026;-81
2022/11/20 08:29:05;;;;;;;18.88;10.15;;;;;;;3.20;84.52;97571.38;4970015;28;20089;-81
2022/11/20 08:31:31;;;;;;;20.80;10.52;;;;;;;3.19;84.98;97556.81;4969347;28;20051;-80
2022/11/20 08:33:57;;;;;;;21.92;10.88;;;;;;;3.25;85.76;97559.72;4968114;28;20151;-80
2022/11/20 08:36:24;;;;;;;21.70;11.35;;;;;;;3.27;85.19;97557.75;4968937;28;20046;-80
2022/11/20 08:38:52;;;;;;;20.92;11.02;;;;;;;3.25;84.55;97560.50;4968509;28;20043;-80
2022/11/20 08:41:28;;;;;;;22.25;11.20;;;;;;;3.17;84.17;97563.09;4969995;28;20490;-80
2022/11/20 08:43:58;;;;;;;20.90;10.45;;;;;;;3.23;85.02;97565.03;4985187;28;20038;-80
2022/11/20 08:46:33;;;;;;;20.00;10.10;;;;;;;3.23;85.60;97567.63;4969438;28;20093;-80
2022/11/20 08:48:59;;;;;;;21.85;10.13;;;;;;;3.15;85.10;97570.25;4969881;28;20042;-79
2022/11/20 08:51:25;;;;;;;22.55;10.90;;;;;;;3.15;85.05;97567.66;4970199;28;20049;-79
2022/11/20 08:53:51;;;;;;;20.35;10.15;;;;;;;3.18;86.23;97562.16;4970260;28;20113;-80
2022/11/20 08:56:17;;;;;;;21.13;10.23;;;;;;;3.08;85.57;97564.13;4969765;28;20034;-79
2022/11/20 08:58:43;;;;;;;20.98;10.43;;;;;;;3.07;85.52;97570.28;4969034;28;20042;-79
2022/11/20 09:01:09;;;;;;;20.30;10.45;;;;;;;3.07;85.72;97567.69;4969585;28;20026;-79
2022/11/20 09:03:34;;;;;;;21.85;10.38;;;;;;;3.08;86.14;97572.69;4969006;28;20043;-79
2022/11/20 09:06:06;;;;;;;20.42;10.30;;;;;;;3.11;85.97;97559.41;4968505;28;20073;-79
2022/11/20 09:08:32;;;;;;;22.63;10.85;;;;;;;3.17;85.99;97558.72;4968298;28;20062;-80
2022/11/20 09:10:59;;;;;;;21.13;9.68;;;;;;;3.14;85.64;97563.44;4969686;28;20433;-80
2022/11/20 09:13:26;;;;;;;20.45;9.25;;;;;;;3.13;85.52;97562.66;4969910;28;20144;-79
2022/11/20 09:16:06;;;;;;;18.25;10.18;;;;;;;3.13;85.77;97564.44;4969914;28;20085;-79
2022/11/20 09:18:34;;;;;;;28.90;10.70;;;;;;;3.16;85.43;97561.50;4968057;28;20042;-80
2022/11/20 09:21:03;;;;;;;20.88;9.82;;;;;;;3.06;85.55;97560.88;4966975;28;20035;-80
2022/11/20 09:23:34;;;;;;;21.38;10.65;;;;;;;3.16;86.28;97562.31;4969322;28;20039;-80
2022/11/20 09:26:05;;;;;;;20.77;10.70;;;;;;;3.29;86.38;97555.78;4969665;28;20395;-81
2022/11/20 09:28:32;;;;;;;18.92;10.02;;;;;;;3.31;85.25;97556.44;4967881;28;20088;-80
2022/11/20 09:30:59;;;;;;;20.40;10.60;;;;;;;3.33;85.70;97546.72;4971017;28;20487;-80
2022/11/20 09:33:24;;;;;;;20.75;10.48;;;;;;;3.19;84.58;97541.25;4970944;28;20034;-80
2022/11/20 09:35:50;;;;;;;18.13;9.57;;;;;;;3.19;85.68;97546.44;4973598;28;20034;-80
2022/11/20 09:38:15;;;;;;;19.38;10.15;;;;;;;3.18;85.15;97559.56;4973462;28;20055;-80
2022/11/20 09:40:55;;;;;;;20.95;10.75;;;;;;;3.20;85.67;97563.59;4972965;28;20034;-80
2022/11/20 09:44:02;;;;;;;19.50;10.10;;;;;;;3.20;86.17;97557.59;4973511;28;20041;-80
2022/11/20 09:46:44;;;;;;;18.70;10.05;;;;;;;3.10;85.79;97567.34;4969506;28;20116;-81
2022/11/20 09:49:46;;;;;;;18.80;9.18;;;;;;;3.21;86.55;97577.38;4972872;28;20556;-80
2022/11/20 09:52:41;;;;;;;18.38;9.15;;;;;;;3.29;86.63;97566.97;4970653;28;20043;-80
2022/11/20 09:55:12;;;;;;;17.33;9.73;;;;;;;3.40;86.74;97571.00;4972328;28;21998;-80
2022/11/20 09:57:45;;;;;;;20.95;8.55;;;;;;;3.13;84.31;97577.38;4973243;28;20089;-80
2022/11/20 10:00:15;;;;;;;17.30;9.30;;;;;;;2.86;86.55;97586.31;4972406;28;20469;-80
2022/11/20 10:03:04;;;;;;;23.23;10.98;;;;;;;2.95;87.46;97580.97;4972790;28;20034;-79
2022/11/20 10:05:54;;;;;;;16.60;8.88;;;;;;;3.02;87.87;97559.59;4972703;28;20071;-80
2022/11/20 10:08:39;;;;;;;19.17;10.75;;;;;;;3.16;87.38;97569.28;4972661;28;20038;-79
2022/11/20 10:11:11;;;;;;;20.90;9.63;;;;;;;3.26;86.32;97561.31;4971918;28;20035;-80
2022/11/20 10:14:12;;;;;;;21.20;10.52;;;;;;;3.30;86.00;97557.41;4972897;28;20446;-80
2022/11/20 10:16:46;;;;;;;18.65;9.20;;;;;;;3.37;86.96;97548.81;4972270;28;20517;-80
2022/11/20 10:19:53;;;;;;;21.90;10.55;;;;;;;3.43;86.60;97542.97;4972626;28;20426;-80
2022/11/20 10:22:51;;;;;;;20.00;10.00;;;;;;;3.48;86.47;97545.88;4962205;28;20081;-80
2022/11/20 10:25:20;;;;;;;17.33;9.32;;;;;;;3.54;86.09;97544.38;4972496;28;20038;-80
2022/11/20 10:28:21;;;;;;;16.95;9.13;;;;;;;3.46;85.10;97532.25;4972656;28;20502;-80
2022/11/20 10:31:02;;;;;;;16.30;9.00;;;;;;;3.44;85.61;97539.38;4972139;28;20046;-80
2022/11/20 10:33:36;;;;;;;17.02;8.85;;;;;;;3.49;86.28;97542.28;4969774;28;20113;-80
2022/11/20 10:36:07;;;;;;;18.20;8.77;;;;;;;3.58;86.34;97544.84;4971324;28;20041;-80
2022/11/20 10:38:45;;;;;;;14.88;8.43;;;;;;;3.64;86.31;97533.78;4971545;28;20398;-79
2022/11/20 10:41:26;;;;;;;14.27;8.05;;;;;;;3.73;86.46;97522.41;4971342;28;20545;-80
2022/11/20 10:44:14;;;;;;;;;;;;;;;3.73;85.42;97525.81;4972858;28;20116;-80
2022/11/20 10:46:45;;;;;;;17.35;8.60;;;;;;;3.75;85.97;97523.84;4972268;28;20330;-80
2022/11/20 10:49:18;;;;;;;;;;;;;;;3.81;85.96;97524.16;4972587;28;20038;-80
2022/11/20 10:52:30;;;;;;;15.00;7.78;;;;;;;3.85;85.30;97536.63;4972334;28;19921;-80
2022/11/20 10:55:25;;;;;;;10.15;5.85;;;;;;;3.23;85.13;97532.16;4969405;28;20521;-79
2022/11/20 10:57:58;;;;;;;9.27;5.40;;;;;;;2.68;88.69;97542.47;4971511;28;20030;-79
2022/11/20 11:00:24;;;;;;;19.15;10.00;;;;;;;2.52;90.55;97543.31;4971594;28;20131;-79
2022/11/20 11:02:56;;;;;;;21.63;10.73;;;;;;;2.67;90.88;97546.03;4971971;28;20106;-80
2022/11/20 11:05:40;;;;;;;19.23;9.38;;;;;;;2.72;91.00;97564.47;4971193;28;20038;-79
2022/11/20 11:08:17;;;;;;;18.85;10.32;;;;;;;2.82;91.40;97557.38;4969876;28;20050;-80
2022/11/20 11:10:54;;;;;;;21.23;10.88;;;;;;;2.93;91.20;97559.59;4971407;28;20035;-80
2022/11/20 11:13:29;;;;;;;17.77;10.02;;;;;;;3.05;91.04;97544.50;4971350;28;20039;-79
2022/11/20 11:15:56;;;;;;;18.27;9.07;;;;;;;2.99;90.27;97554.72;4970527;28;20023;-79
2022/11/20 11:18:33;;;;;;;12.50;7.60;;;;;;;3.09;91.18;97539.81;4970505;28;20494;-80
2022/11/20 11:21:04;;;;;;;17.42;9.45;;;;;;;3.37;91.68;97540.22;4971060;28;20046;-80
2022/11/20 11:23:38;;;;;;;14.95;8.73;;;;;;;3.50;90.21;97540.50;4971114;28;20057;-80
2022/11/20 11:26:07;;;;;;;13.50;7.53;;;;;;;3.68;89.83;97541.06;4971027;28;20077;-80
2022/11/20 11:28:34;;;;;;;17.40;8.15;;;;;;;3.91;89.42;97527.34;4971362;28;20046;-81
2022/11/20 11:30:59;;;;;;;15.15;8.50;;;;;;;4.07;88.54;97523.81;4985544;28;20054;-80
2022/11/20 11:33:35;;;;;;;12.45;7.32;;;;;;;4.17;86.22;97527.00;4965567;28;20042;-80
2022/11/20 11:36:24;;;;;;;14.80;7.70;;;;;;;4.42;86.44;97528.44;4970229;28;20042;-80
2022/11/20 11:38:52;;;;;;;18.27;8.00;;;;;;;4.46;85.04;97514.13;4970204;28;20034;-81
2022/11/20 11:41:25;;;;;;;15.13;7.85;;;;;;;4.41;86.49;97521.63;4970114;28;20483;-81
2022/11/20 11:46:52;;;;;;;13.05;6.97;;;;;;;4.50;85.30;97505.03;4970100;28;20390;-81
2022/11/20 11:49:19;;;;;;;10.43;6.22;;;;;;;4.44;85.17;97510.91;4969116;28;20039;-81
2022/11/20 11:52:09;;;;;;;14.35;7.32;;;;;;;4.52;85.54;97510.84;4970685;28;20039;-81